Карточка аэропорта UMMG

Внимание!
Информация на этой странице в стадии наполнения.
Если вы не увидели какой-то информации, или заметили неточность - пожалуйста сообщите нам!
Спасибо!
Команда RU-STAFF
Название аэропортаGrodno
Название аэропорта (англ.)Grodno
Превышение443 ft. (135 m.)
Координаты53°36.114', 24°3.2339999999999'
Высота перехода6000 ft
Эшелон переходаFL80; QNH<977hPa - FL90
Коды ответчика0036; 6230-6277
Зона ОрВДМинск РПИ (UMMV)
Данные METARUMMG 251330Z VRB01MPS 9999 BKN046 26/13 Q1020 NOSIG
Проноз погоды (TAF)UMMG 251101Z 2512/2521 02003G08MPS 9999 BKN020 TX26/2512Z TN18/2521Z TEMPO 2515/2521 VRB02MPS
NOTAMshow/hide NOTAM
AWOS   TABLE

Информация о ВПП

ВПП Длина ВПП (м.) Покрытие Курс ВПП Частота ILS
172560Цементобетон170109.5
352560Цементобетон350 

Диспетчерские позиции




Спутниковое изображение